DAON

Details ICAO DAON (TLM)
Name ZENATA
Region Algeria
Timezone Africa/Algiers (UTC+1.0)
Plans Departing 22
Arriving 25
Stats Elevation 814 ft / 248 m (AMSL)
Location 35.013350° -1.457202°
Runways 1
Magnetic Variation 0.021° W
Sunrise 2018-05-24 04:58:00 UTC / 2018-05-24 05:58:00 Local
Sunset 2018-05-24 19:10:12 UTC / 2018-05-24 20:10:12 Local
Advertisement - Login to hide

Runways

ID Width Length Bearing (true) Bearing (mag) Surface Threshold Offset Overrun Length
07 148 ft / 45 m 8,521 ft / 2,597 m 69.94° 69.96° Asphalt 0 ft / 0 m 0 ft / 0 m
25 148 ft / 45 m 8,521 ft / 2,597 m 249.96° 249.98° Asphalt 0 ft / 0 m 0 ft / 0 m

Map

Weather


0- 5 10 15 20 25 30 35+ Temperature / ° C

Clouds and Precipitation
Forecast for 2018-05-24 12:00 UTC. Updated 3 hours ago

Ground ~20,000 ft ~40,000 ft Winds

METAR

DAON 241400Z 34009KT 8000 SCT030 BKN233 25/16 Q1010

TAF

TAF DAON 241100Z 2412/2512 34012KT 8000 SCT030 BKN233 TEMPO 2412/2418 31016KT BECMG 2418/2420 VRB02KT SCT026 BKN030 PROB30 TEMPO 2420/2503 -RA SCT020 BKN026 FEW026TCU

Frequencies

Tower 119.70 MHz TLEMCEN TWR
Warning: Do not use this data for real-world aviation or navigation. No guarantee of current accuracy is given.